CW6981 Weather Reports


time (UTC)temp
F
wind
direction
speed
knots
gust
knots
rain 1hr
in
rain 24hr
in
rain mn
in
humidity
%
barometer
mb
20240617192555 80 67 0.9 3.5 0.00 0.00 0.00 49 1004.1
20240617192028 80 77 0.9 5.2 0.00 0.00 0.00 50 1004.2
20240617191540 80 83 0.9 5.2 0.00 0.00 0.00 51 1004.4
20240617191036 79 64 1.7 3.5 0.00 0.00 0.00 52 1004.5
20240617190545 79 21 0.9 3.5 0.00 0.00 0.00 52 1004.6
20240617190042 79 70 0.9 4.3 0.00 0.00 0.00 52 1004.6
20240617185535 78 275 1.7 4.3 0.00 0.00 0.00 52 1004.7
20240617185043 78 83 0.9 3.5 0.00 0.00 0.00 55 1004.8
20240617184533 77 37 0.0 2.6 0.00 0.00 0.00 56 1004.9
20240617184028 77 73 0.9 5.2 0.00 0.00 0.00 55 1005.0
20240617183557 76 141 1.7 5.2 0.00 0.00 0.00 56 1005.1
20240617183105 75 89 1.7 3.5 0.00 0.00 0.00 58 1005.2
20240617182551 75 270 0.0 1.7 0.00 0.00 0.00 58 1005.4
20240617182100 75 63 0.9 1.7 0.00 0.00 0.00 59 1005.6
20240617181606 74 70 0.9 2.6 0.00 0.00 0.00 59 1005.7
20240617181037 74 72 0.0 2.6 0.00 0.00 0.00 59 1005.7
20240617180527 74 324 0.0 3.5 0.00 0.00 0.00 61 1005.8
20240617180058 73 318 0.9 3.5 0.00 0.00 0.00 61 1006.0
20240617175528 73 67 0.9 2.6 0.00 0.00 0.00 63 1006.0
20240617175037 72 297 0.0 2.6 0.00 0.00 0.00 62 1006.1
20240617131539 62 52 0.9 2.6 0.00 0.00 0.00 82 1009.9
20240617131054 62 52 0.9 2.6 0.00 0.00 0.00 82 1009.8
20240617130541 62 269 0.0 1.7 0.00 0.00 0.00 82 1009.8
20240617130024 62 256 0.9 1.7 0.00 0.00 0.00 82 1009.9
20240617125536 61 317 0.0 1.7 0.00 0.00 0.00 83 1009.8
20240617125028 61 54 0.9 1.7 0.00 0.00 0.00 83 1009.8
20240617124540 61 3 0.0 1.7 0.00 0.00 0.00 83 1009.7
20240617124051 61 356 0.0 1.7 0.00 0.00 0.00 83 1009.6
20240617123532 60 271 0.0 0.9 0.00 0.00 0.00 83 1009.6
20240617123024 60 270 0.0 0.9 0.00 0.00 0.00 83 1009.5
20240617122557 60 270 0.0 0.9 0.00 0.00 0.00 83 1009.4
20240617122038 60 270 0.0 0.9 0.00 0.00 0.00 83 1009.2
20240617121548 60 270 0.0 1.7 0.00 0.00 0.00 83 1009.2
20240617121041 60 270 0.0 1.7 0.00 0.00 0.00 83 1009.2
20240617120530 60 261 0.0 0.9 0.00 0.00 0.00 84 1009.1
20240617120043 59 252 0.0 0.9 0.00 0.00 0.00 84 1009.1
20240617115536 59 252 0.0 0.9 0.00 0.00 0.00 84 1009.0
20240617115050 59 259 0.0 0.9 0.00 0.00 0.00 84 1008.8
20240617114604 59 259 0.0 1.7 0.00 0.00 0.00 84 1008.8
20240617114037 59 260 0.0 1.7 0.00 0.00 0.00 84 1008.8
20240617113527 59 268 0.0 0.9 0.00 0.00 0.00 84 1008.7
20240617113042 59 274 0.0 0.9 0.00 0.00 0.00 84 1008.5
20240617112534 58 243 0.0 0.9 0.00 0.00 0.00 85 1008.5
20240617112025 58 242 0.0 0.9 0.00 0.00 0.00 85 1008.4
20240617111538 58 242 0.0 0.9 0.00 0.00 0.00 84 1008.4
20240617111030 58 242 0.0 1.7 0.00 0.00 0.00 84 1008.3
20240617110600 58 242 0.0 1.7 0.00 0.00 0.00 83 1008.3
20240617110030 58 230 0.0 0.0 0.00 0.00 0.00 81 1008.2
20240617105540 58 230 0.0 0.0 0.00 0.00 0.00 80 1008.2
20240617105032 58 230 0.0 0.0 0.00 0.00 0.00 78 1008.2
20240617104543 58 230 0.0 0.0 0.00 0.00 0.00 78 1008.2
20240617104036 58 230 0.0 0.0 0.00 0.00 0.00 78 1008.2
20240617103544 58 230 0.0 0.0 0.00 0.00 0.00 78 1008.2
20240617103027 59 230 0.0 0.0 0.00 0.00 0.00 78 1008.1
20240617102542 59 230 0.0 0.0 0.00 0.00 0.00 77 1008.1
20240617102024 59 230 0.0 0.0 0.00 0.00 0.00 77 1007.9
20240617101532 59 230 0.0 0.0 0.00 0.00 0.00 77 1007.9
20240617101044 59 230 0.0 0.0 0.00 0.00 0.00 77 1007.9
20240617100524 60 230 0.0 0.0 0.00 0.00 0.00 77 1008.0
20240617100055 60 230 0.0 0.0 0.00 0.00 0.00 77 1007.9
20240617095546 60 230 0.0 0.0 0.00 0.00 0.00 77 1007.9
20240617095028 60 230 0.0 0.9 0.00 0.00 0.00 76 1007.8
20240617094603 60 230 0.0 0.9 0.00 0.00 0.00 76 1007.9
20240617094049 61 230 0.0 0.0 0.00 0.00 0.00 76 1007.9
20240617093529 61 230 0.0 0.0 0.00 0.00 0.00 76 1008.0
20240617093024 61 230 0.0 0.0 0.00 0.00 0.00 75 1007.9
20240617092539 61 230 0.0 0.0 0.00 0.00 0.00 75 1007.9
20240617092108 61 230 0.0 0.0 0.00 0.00 0.00 75 1008.0
20240617091534 62 230 0.0 0.0 0.00 0.00 0.00 75 1008.0
20240617091026 62 230 0.0 0.0 0.00 0.00 0.00 74 1008.0
20240617090535 62 230 0.0 0.0 0.00 0.00 0.00 74 1007.9
20240617090049 62 230 0.0 0.0 0.00 0.00 0.00 74 1007.9
20240617085601 62 230 0.0 0.0 0.00 0.00 0.00 74 1007.9
20240617085054 63 230 0.0 0.0 0.00 0.00 0.00 74 1007.9
20240617084525 63 230 0.0 0.0 0.00 0.00 0.00 74 1008.0
20240617084038 63 230 0.0 0.0 0.00 0.00 0.00 73 1008.1
20240617083538 63 230 0.0 0.0 0.00 0.00 0.00 73 1008.2
20240617083044 64 230 0.0 0.0 0.00 0.00 0.00 72 1008.2
20240617082547 64 230 0.0 0.0 0.00 0.00 0.00 72 1008.2
20240617082038 64 230 0.0 0.0 0.00 0.00 0.00 71 1008.1
20240617081537 64 230 0.0 0.0 0.00 0.00 0.00 71 1008.1
20240617081030 65 230 0.0 0.0 0.00 0.00 0.00 72 1008.2
20240617080540 65 230 0.0 0.0 0.00 0.00 0.00 71 1008.3
20240617080022 65 230 0.0 0.0 0.00 0.00 0.00 70 1008.3
20240617075535 66 230 0.0 0.0 0.00 0.00 0.00 71 1008.3
20240617075025 66 230 0.0 0.0 0.00 0.00 0.00 70 1008.3
20240617074540 66 230 0.0 0.0 0.00 0.00 0.00 69 1008.3
20240617074031 67 230 0.0 0.0 0.00 0.00 0.00 69 1008.5
20240617073524 67 230 0.0 0.0 0.00 0.00 0.00 69 1008.5
20240617073036 67 230 0.0 0.0 0.00 0.00 0.00 68 1008.5
20240617072533 68 230 0.0 0.0 0.00 0.00 0.00 68 1008.6
20240617072041 68 230 0.0 0.0 0.00 0.00 0.00 68 1008.6
20240617071533 69 230 0.0 0.0 0.00 0.00 0.00 67 1008.6
20240617071026 69 230 0.0 0.0 0.00 0.00 0.00 66 1008.7
20240617070555 69 230 0.0 0.0 0.00 0.00 0.00 65 1008.9
20240617070025 70 230 0.0 0.0 0.00 0.00 0.00 66 1008.8
20240617065539 70 230 0.0 0.0 0.00 0.00 0.00 64 1008.9
20240617065049 71 230 0.0 0.0 0.00 0.00 0.00 64 1009.0
20240617064557 71 230 0.0 0.0 0.00 0.00 0.00 63 1009.2
20240617064030 71 230 0.0 0.0 0.00 0.00 0.00 63 1009.3
20240617063540 72 230 0.0 0.0 0.00 0.00 0.00 62 1009.2
20240617063052 72 230 0.0 0.0 0.00 0.00 0.00 62 1009.4
20240617062544 72 230 0.0 0.0 0.00 0.00 0.00 61 1009.4
20240617062036 72 230 0.0 0.0 0.00 0.00 0.00 60 1009.5
20240617061526 72 230 0.0 0.9 0.00 0.00 0.00 60 1009.6
20240617061104 73 230 0.0 0.9 0.00 0.00 0.00 60 1009.5
20240617060541 73 230 0.0 0.0 0.00 0.00 0.00 59 1009.7
20240617060105 73 230 0.0 0.0 0.00 0.00 0.00 59 1009.7
20240617055532 73 230 0.0 0.0 0.00 0.00 0.00 58 1009.7
20240617055044 73 230 0.0 0.0 0.00 0.00 0.00 58 1009.8
20240617054535 73 230 0.0 0.9 0.00 0.00 0.00 58 1009.8
20240617054031 73 230 0.0 0.9 0.00 0.00 0.00 58 1009.8
20240617053540 74 230 0.0 0.9 0.00 0.00 0.00 58 1009.9
20240617053031 74 230 0.0 0.9 0.00 0.00 0.00 58 1009.9
20240617052543 74 230 0.0 0.9 0.00 0.00 0.00 58 1009.8
20240617052033 74 229 0.0 0.9 0.00 0.00 0.00 58 1009.8
20240617051547 74 141 0.0 1.7 0.00 0.00 0.00 58 1009.8
20240617051059 74 141 0.0 1.7 0.00 0.00 0.00 58 1009.8
20240617050526 74 139 0.0 1.7 0.00 0.00 0.00 57 1009.9
20240617050055 74 104 0.9 3.5 0.00 0.00 0.00 57 1009.9
20240617045526 75 104 0.9 3.5 0.00 0.00 0.00 57 1009.9
20240617045035 75 77 0.9 2.6 0.00 0.00 0.00 56 1009.9
20240617044545 75 321 0.0 1.7 0.00 0.00 0.00 56 1009.9
20240617044044 76 281 0.0 0.9 0.00 0.00 0.00 55 1009.8
20240617043553 76 281 0.0 0.9 0.00 0.00 0.00 54 1009.8
20240617043034 76 285 0.0 0.9 0.00 0.00 0.00 54 1009.8
20240617042527 76 285 0.0 0.0 0.00 0.00 0.00 53 1009.8
20240617042036 77 285 0.0 0.9 0.00 0.00 0.00 53 1009.8
20240617041527 77 285 0.0 0.9 0.00 0.00 0.00 52 1009.7
20240617041039 77 285 0.0 0.0 0.00 0.00 0.00 52 1009.8
20240617040526 77 285 0.0 0.9 0.00 0.00 0.00 51 1009.7
20240617040038 77 285 0.0 0.9 0.00 0.00 0.00 51 1009.8
20240617035529 77 285 0.0 0.0 0.00 0.00 0.00 50 1009.7
20240617035021 78 285 0.0 0.0 0.00 0.00 0.00 50 1009.6
20240617034555 78 285 0.0 0.0 0.00 0.00 0.00 49 1009.7
20240617034029 78 285 0.0 0.9 0.00 0.00 0.00 49 1009.7
20240617033524 78 285 0.0 0.9 0.00 0.00 0.00 49 1009.7
20240617033100 78 285 0.0 0.9 0.00 0.00 0.00 48 1009.6
20240617032531 79 285 0.0 0.9 0.00 0.00 0.00 48 1009.6
20240617032041 79 285 0.0 0.9 0.00 0.00 0.00 47 1009.6
20240617031535 79 285 0.0 0.9 0.00 0.00 0.00 47 1009.4
20240617031049 79 285 0.0 0.0 0.00 0.00 0.00 46 1009.6
20240617030555 79 285 0.0 0.9 0.00 0.00 0.00 46 1009.5
20240617030025 79 285 0.0 0.9 0.00 0.00 0.00 45 1009.4
20240617025541 79 254 0.0 0.9 0.00 0.00 0.00 45 1009.3
20240617025029 80 272 0.0 1.7 0.00 0.00 0.00 45 1009.2
20240617024538 80 272 0.0 1.7 0.00 0.00 0.00 44 1009.2
20240617024031 80 239 0.0 0.9 0.00 0.00 0.00 44 1009.3
20240617023521 80 258 0.0 1.7 0.00 0.00 0.00 44 1009.4
20240617023035 80 262 0.0 1.7 0.00 0.00 0.00 43 1009.2
20240617022527 80 268 0.0 1.7 0.00 0.00 0.00 43 1009.1
20240617022055 80 269 0.0 1.7 0.00 0.00 0.00 43 1009.1
20240617021523 80 220 0.0 1.7 0.00 0.00 0.00 43 1009.2
20240617021042 80 241 0.0 2.6 0.00 0.00 0.00 42 1009.0
20240617020530 80 202 0.9 2.6 0.00 0.00 0.00 42 1008.8
20240617020040 80 279 0.9 2.6 0.00 0.00 0.00 42 1008.8
20240617015534 80 274 0.0 1.7 0.00 0.00 0.00 42 1009.1
20240617015024 80 274 0.0 1.7 0.00 0.00 0.00 42 1009.3
20240617014535 80 288 0.0 2.6 0.00 0.00 0.00 42 1008.8
20240617014028 80 268 0.9 2.6 0.00 0.00 0.00 41 1008.7
20240617013536 80 256 0.0 1.7 0.00 0.00 0.00 41 1008.6
20240617013027 80 262 0.0 3.5 0.00 0.00 0.00 41 1008.7
20240617012541 80 287 0.9 3.5 0.00 0.00 0.00 41 1008.8
20240617012029 80 297 0.9 2.6 0.00 0.00 0.00 41 1008.6
20240617011537 80 272 0.9 2.6 0.00 0.00 0.00 42 1008.7
20240617011052 80 245 0.0 2.6 0.00 0.00 0.00 41 1008.7
20240617010541 81 282 0.9 2.6 0.00 0.00 0.00 41 1008.5
20240617010027 81 270 0.9 5.2 0.00 0.00 0.00 41 1008.4
20240617005538 81 276 1.7 5.2 0.00 0.00 0.00 40 1008.3
20240617005030 81 286 0.9 2.6 0.00 0.00 0.00 41 1008.2
20240617004541 81 258 0.9 1.7 0.00 0.00 0.00 41 1008.4
20240617004033 81 233 0.0 3.5 0.00 0.00 0.00 41 1008.6
20240617003537 80 79 0.9 3.5 0.00 0.00 0.00 41 1008.5
20240617003027 81 304 0.9 4.3 0.00 0.00 0.00 40 1008.5
20240617002539 81 208 0.9 5.2 0.00 0.00 0.00 41 1008.4
20240617002029 81 71 2.6 5.2 0.00 0.00 0.00 40 1008.4
20240617001539 82 42 0.9 3.5 0.00 0.00 0.00 40 1008.6
20240617001029 82 266 0.9 3.5 0.00 0.00 0.00 39 1009.1
20240617000559 82 294 0.9 4.3 0.00 0.00 0.00 39 1009.1
20240617000034 82 81 1.7 4.3 0.00 0.00 0.00 40 1008.8
20240616235527 82 277 0.9 3.5 0.00 0.00 0.00 39 1008.5
20240616235037 82 258 1.7 4.3 0.00 0.00 0.00 38 1008.8
20240616234526 82 281 0.9 5.2 0.00 0.00 0.00 39 1008.9
20240616234042 82 309 1.7 5.2 0.00 0.00 0.00 38 1008.9
20240616233536 82 257 0.9 2.6 0.00 0.00 0.00 40 1008.8
20240616233029 83 351 0.0 4.3 0.00 0.00 0.00 39 1008.8
20240616232545 83 289 1.7 4.3 0.00 0.00 0.00 38 1008.9
20240616232033 83 308 0.9 3.5 0.00 0.00 0.00 38 1009.0
20240616231527 84 245 0.9 3.5 0.00 0.00 0.00 37 1009.0
20240616231042 84 283 0.9 5.2 0.00 0.00 0.00 38 1009.0
20240616230549 84 297 0.9 5.2 0.00 0.00 0.00 37 1009.0
20240616230036 84 274 1.7 4.3 0.00 0.00 0.00 37 1009.0
20240616225528 84 284 1.7 3.5 0.00 0.00 0.00 36 1008.9
20240616225032 85 290 1.7 3.5 0.00 0.00 0.00 36 1009.0
20240616224603 85 60 1.7 5.2 0.00 0.00 0.00 38 1009.0
20240616224053 85 54 1.7 5.2 0.00 0.00 0.00 37 1009.0
20240616223540 85 252 0.9 6.1 0.00 0.00 0.00 37 1009.0
20240616223052 85 299 2.6 6.1 0.00 0.00 0.00 36 1009.0
20240616222546 85 75 0.9 4.3 0.00 0.00 0.00 37 1009.1
20240616222035 85 73 0.0 7.0 0.00 0.00 0.00 37 1009.1
20240616221547 85 236 1.7 7.0 0.00 0.00 0.00 37 1009.1
20240616221039 85 273 0.9 3.5 0.00 0.00 0.00 36 1009.1
20240616220551 85 81 0.9 3.5 0.00 0.00 0.00 38 1009.2
20240616220032 85 69 1.7 3.5 0.00 0.00 0.00 36 1009.3
20240616215545 85 74 1.7 6.1 0.00 0.00 0.00 36 1009.3
20240616215032 85 57 1.7 6.1 0.00 0.00 0.00 36 1009.3
20240616214543 85 271 1.7 4.3 0.00 0.00 0.00 35 1009.4
20240616214037 84 77 1.7 4.3 0.00 0.00 0.00 37 1009.5
20240616213528 84 47 2.6 4.3 0.00 0.00 0.00 37 1009.6
20240616213023 84 102 0.0 4.3 0.00 0.00 0.00 35 1009.5
20240616212536 84 109 1.7 3.5 0.00 0.00 0.00 36 1009.8
20240616212104 84 312 0.9 5.2 0.00 0.00 0.00 36 1009.9
20240616211534 84 112 2.6 5.2 0.00 0.00 0.00 37 1009.8
20240616211028 83 249 1.7 4.3 0.00 0.00 0.00 37 1009.9
20240616210536 83 289 0.9 3.5 0.00 0.00 0.00 37 1009.9
20240616210047 83 266 0.9 4.3 0.00 0.00 0.00 38 1009.9
20240616205540 83 289 1.7 4.3 0.00 0.00 0.00 37 1009.9
20240616205031 83 48 0.0 3.5 0.00 0.00 0.00 38 1010.1
20240616204522 82 57 2.6 3.5 0.00 0.00 0.00 40 1010.1
20240616204038 82 64 0.9 5.2 0.00 0.00 0.00 38 1010.2
20240616203527 82 65 1.7 5.2 0.00 0.00 0.00 38 1010.2
20240616203038 82 83 1.7 6.1 0.00 0.00 0.00 38 1010.4
20240616202549 82 73 3.5 6.1 0.00 0.00 0.00 38 1010.4
20240616202036 82 104 2.6 4.3 0.00 0.00 0.00 38 1010.4
20240616201531 81 85 0.9 3.5 0.00 0.00 0.00 41 1010.5
20240616201059 81 43 0.0 3.5 0.00 0.00 0.00 38 1010.7
20240616200529 81 69 1.7 3.5 0.00 0.00 0.00 40 1010.6
20240616200028 81 71 1.7 3.5 0.00 0.00 0.00 40 1010.6
20240616195542 81 21 1.7 3.5 0.00 0.00 0.00 39 1010.7
20240616195050 80 70 0.0 5.2 0.00 0.00 0.00 38 1010.8
20240616194540 80 286 2.6 5.2 0.00 0.00 0.00 38 1010.7
20240616194037 80 75 1.7 3.5 0.00 0.00 0.00 39 1010.9
20240616193545 80 59 1.7 5.2 0.00 0.00 0.00 39 1011.0
20240616193035 80 261 2.6 5.2 0.00 0.00 0.00 39 1010.9